sensor_id;sensor_type;location;lat;lon;timestamp;temperature;humidity
53978;DHT22;39886;47.984;-1.586;2022-07-26T00:00:28;26.10;50.40
53978;DHT22;39886;47.984;-1.586;2022-07-26T00:02:54;26.10;50.40
53978;DHT22;39886;47.984;-1.586;2022-07-26T00:05:19;26.10;50.40
53978;DHT22;39886;47.984;-1.586;2022-07-26T00:07:45;26.10;50.40
53978;DHT22;39886;47.984;-1.586;2022-07-26T00:10:12;26.00;50.30
53978;DHT22;39886;47.984;-1.586;2022-07-26T00:12:38;26.00;50.40
53978;DHT22;39886;47.984;-1.586;2022-07-26T00:15:05;26.10;50.50
53978;DHT22;39886;47.984;-1.586;2022-07-26T00:17:32;26.00;50.40
53978;DHT22;39886;47.984;-1.586;2022-07-26T00:19:58;26.00;50.40
53978;DHT22;39886;47.984;-1.586;2022-07-26T00:22:24;26.00;50.40
53978;DHT22;39886;47.984;-1.586;2022-07-26T00:24:59;26.00;50.50
53978;DHT22;39886;47.984;-1.586;2022-07-26T00:27:25;26.00;50.50
53978;DHT22;39886;47.984;-1.586;2022-07-26T00:29:51;26.00;50.50
53978;DHT22;39886;47.984;-1.586;2022-07-26T00:32:17;26.00;50.50
53978;DHT22;39886;47.984;-1.586;2022-07-26T00:34:42;26.00;50.50
53978;DHT22;39886;47.984;-1.586;2022-07-26T00:37:08;26.00;50.50
53978;DHT22;39886;47.984;-1.586;2022-07-26T00:39:34;26.00;50.50
53978;DHT22;39886;47.984;-1.586;2022-07-26T00:41:59;26.00;50.60
53978;DHT22;39886;47.984;-1.586;2022-07-26T00:44:36;26.00;50.60
53978;DHT22;39886;47.984;-1.586;2022-07-26T00:47:02;26.00;50.60
53978;DHT22;39886;47.984;-1.586;2022-07-26T00:49:28;25.90;50.50
53978;DHT22;39886;47.984;-1.586;2022-07-26T00:51:53;25.90;50.50
53978;DHT22;39886;47.984;-1.586;2022-07-26T00:54:19;25.90;50.60
53978;DHT22;39886;47.984;-1.586;2022-07-26T00:56:45;25.90;50.60
53978;DHT22;39886;47.984;-1.586;2022-07-26T00:59:11;25.90;50.60
53978;DHT22;39886;47.984;-1.586;2022-07-26T01:01:36;25.90;50.60
53978;DHT22;39886;47.984;-1.586;2022-07-26T01:04:02;25.90;50.60
53978;DHT22;39886;47.984;-1.586;2022-07-26T01:06:28;25.90;50.70
53978;DHT22;39886;47.984;-1.586;2022-07-26T01:08:54;25.90;50.70
53978;DHT22;39886;47.984;-1.586;2022-07-26T01:11:20;25.90;50.70
53978;DHT22;39886;47.984;-1.586;2022-07-26T01:13:49;25.90;50.70
53978;DHT22;39886;47.984;-1.586;2022-07-26T01:16:15;25.90;50.70
53978;DHT22;39886;47.984;-1.586;2022-07-26T01:18:41;25.90;50.70
53978;DHT22;39886;47.984;-1.586;2022-07-26T01:21:09;25.90;50.70
53978;DHT22;39886;47.984;-1.586;2022-07-26T01:23:35;25.90;50.70
53978;DHT22;39886;47.984;-1.586;2022-07-26T01:26:02;25.90;50.80
53978;DHT22;39886;47.984;-1.586;2022-07-26T01:28:28;25.90;50.80
53978;DHT22;39886;47.984;-1.586;2022-07-26T01:30:54;25.90;50.80
53978;DHT22;39886;47.984;-1.586;2022-07-26T01:33:19;25.90;50.80
53978;DHT22;39886;47.984;-1.586;2022-07-26T01:35:46;25.90;50.80
53978;DHT22;39886;47.984;-1.586;2022-07-26T01:38:11;25.80;50.70
53978;DHT22;39886;47.984;-1.586;2022-07-26T01:40:37;25.90;50.80
53978;DHT22;39886;47.984;-1.586;2022-07-26T01:43:03;25.90;50.80
53978;DHT22;39886;47.984;-1.586;2022-07-26T01:45:29;25.90;50.80
53978;DHT22;39886;47.984;-1.586;2022-07-26T01:47:56;25.90;50.80
53978;DHT22;39886;47.984;-1.586;2022-07-26T01:50:21;25.90;50.80
53978;DHT22;39886;47.984;-1.586;2022-07-26T01:52:47;25.80;50.90
53978;DHT22;39886;47.984;-1.586;2022-07-26T01:55:13;25.80;50.90
53978;DHT22;39886;47.984;-1.586;2022-07-26T01:57:39;25.80;50.80
53978;DHT22;39886;47.984;-1.586;2022-07-26T02:00:06;25.80;50.80
53978;DHT22;39886;47.984;-1.586;2022-07-26T02:02:32;25.80;50.90
53978;DHT22;39886;47.984;-1.586;2022-07-26T02:04:57;25.80;50.90
53978;DHT22;39886;47.984;-1.586;2022-07-26T02:07:26;25.80;50.90
53978;DHT22;39886;47.984;-1.586;2022-07-26T02:09:53;25.80;50.90
53978;DHT22;39886;47.984;-1.586;2022-07-26T02:12:19;25.80;50.90
53978;DHT22;39886;47.984;-1.586;2022-07-26T02:14:45;25.80;50.90
53978;DHT22;39886;47.984;-1.586;2022-07-26T02:17:10;25.80;50.90
53978;DHT22;39886;47.984;-1.586;2022-07-26T02:19:36;25.80;50.90
53978;DHT22;39886;47.984;-1.586;2022-07-26T02:22:03;25.80;51.60
53978;DHT22;39886;47.984;-1.586;2022-07-26T02:24:29;25.80;51.00
53978;DHT22;39886;47.984;-1.586;2022-07-26T02:26:59;25.80;51.00
53978;DHT22;39886;47.984;-1.586;2022-07-26T02:29:25;25.80;51.00
53978;DHT22;39886;47.984;-1.586;2022-07-26T02:31:51;25.80;51.00
53978;DHT22;39886;47.984;-1.586;2022-07-26T02:34:17;25.80;51.00
53978;DHT22;39886;47.984;-1.586;2022-07-26T02:36:44;25.80;51.00
53978;DHT22;39886;47.984;-1.586;2022-07-26T02:39:10;25.80;51.00
53978;DHT22;39886;47.984;-1.586;2022-07-26T02:41:36;25.80;51.00
53978;DHT22;39886;47.984;-1.586;2022-07-26T02:44:01;25.80;51.00
53978;DHT22;39886;47.984;-1.586;2022-07-26T02:46:27;25.80;51.70
53978;DHT22;39886;47.984;-1.586;2022-07-26T02:48:53;25.80;51.00
53978;DHT22;39886;47.984;-1.586;2022-07-26T02:51:19;25.70;51.00
53978;DHT22;39886;47.984;-1.586;2022-07-26T02:53:45;25.80;51.10
53978;DHT22;39886;47.984;-1.586;2022-07-26T02:56:10;25.70;51.00
53978;DHT22;39886;47.984;-1.586;2022-07-26T02:58:36;25.70;51.10
53978;DHT22;39886;47.984;-1.586;2022-07-26T03:01:03;25.80;51.20
53978;DHT22;39886;47.984;-1.586;2022-07-26T03:03:29;25.70;51.10
53978;DHT22;39886;47.984;-1.586;2022-07-26T03:05:55;25.70;51.10
53978;DHT22;39886;47.984;-1.586;2022-07-26T03:08:21;25.70;51.10
53978;DHT22;39886;47.984;-1.586;2022-07-26T03:10:47;25.70;51.10
53978;DHT22;39886;47.984;-1.586;2022-07-26T03:13:13;25.70;51.10
53978;DHT22;39886;47.984;-1.586;2022-07-26T03:15:39;25.70;51.10
53978;DHT22;39886;47.984;-1.586;2022-07-26T03:18:05;25.70;51.10
53978;DHT22;39886;47.984;-1.586;2022-07-26T03:20:31;25.70;51.10
53978;DHT22;39886;47.984;-1.586;2022-07-26T03:22:57;25.70;51.10
53978;DHT22;39886;47.984;-1.586;2022-07-26T03:25:23;25.70;51.20
53978;DHT22;39886;47.984;-1.586;2022-07-26T03:27:48;25.70;51.20
53978;DHT22;39886;47.984;-1.586;2022-07-26T03:30:14;25.70;51.20
53978;DHT22;39886;47.984;-1.586;2022-07-26T03:32:40;25.70;51.20
53978;DHT22;39886;47.984;-1.586;2022-07-26T03:35:07;25.70;51.20
53978;DHT22;39886;47.984;-1.586;2022-07-26T03:37:33;25.70;51.20
53978;DHT22;39886;47.984;-1.586;2022-07-26T03:39:59;25.70;51.20
53978;DHT22;39886;47.984;-1.586;2022-07-26T03:42:25;25.70;51.20
53978;DHT22;39886;47.984;-1.586;2022-07-26T03:44:50;25.70;51.20
53978;DHT22;39886;47.984;-1.586;2022-07-26T03:47:16;25.60;51.10
53978;DHT22;39886;47.984;-1.586;2022-07-26T03:49:42;25.70;51.20
53978;DHT22;39886;47.984;-1.586;2022-07-26T03:52:07;25.70;51.20
53978;DHT22;39886;47.984;-1.586;2022-07-26T03:54:35;25.70;51.20
53978;DHT22;39886;47.984;-1.586;2022-07-26T03:57:01;25.70;51.20
53978;DHT22;39886;47.984;-1.586;2022-07-26T03:59:27;25.70;51.30
53978;DHT22;39886;47.984;-1.586;2022-07-26T04:01:52;25.60;51.20
53978;DHT22;39886;47.984;-1.586;2022-07-26T04:04:18;25.70;51.30
53978;DHT22;39886;47.984;-1.586;2022-07-26T04:06:45;25.60;51.20
53978;DHT22;39886;47.984;-1.586;2022-07-26T04:09:12;25.60;51.20
53978;DHT22;39886;47.984;-1.586;2022-07-26T04:11:38;25.60;51.20
53978;DHT22;39886;47.984;-1.586;2022-07-26T04:14:04;25.60;51.20
53978;DHT22;39886;47.984;-1.586;2022-07-26T04:16:30;25.60;51.30
53978;DHT22;39886;47.984;-1.586;2022-07-26T04:18:56;25.60;51.30
53978;DHT22;39886;47.984;-1.586;2022-07-26T04:21:22;25.60;51.30
53978;DHT22;39886;47.984;-1.586;2022-07-26T04:23:48;25.60;51.30
53978;DHT22;39886;47.984;-1.586;2022-07-26T04:26:14;25.60;51.30
53978;DHT22;39886;47.984;-1.586;2022-07-26T04:28:40;25.60;51.30
53978;DHT22;39886;47.984;-1.586;2022-07-26T04:31:07;25.60;51.30
53978;DHT22;39886;47.984;-1.586;2022-07-26T04:33:33;25.60;51.40
53978;DHT22;39886;47.984;-1.586;2022-07-26T04:35:59;25.60;51.30
53978;DHT22;39886;47.984;-1.586;2022-07-26T04:38:25;25.60;51.40
53978;DHT22;39886;47.984;-1.586;2022-07-26T04:40:51;25.60;51.40
53978;DHT22;39886;47.984;-1.586;2022-07-26T04:43:17;25.60;51.40
53978;DHT22;39886;47.984;-1.586;2022-07-26T04:45:47;25.60;51.40
53978;DHT22;39886;47.984;-1.586;2022-07-26T04:48:14;25.60;51.40
53978;DHT22;39886;47.984;-1.586;2022-07-26T04:50:40;25.60;51.40
53978;DHT22;39886;47.984;-1.586;2022-07-26T04:53:05;25.60;51.40
53978;DHT22;39886;47.984;-1.586;2022-07-26T04:55:31;25.60;51.40
53978;DHT22;39886;47.984;-1.586;2022-07-26T04:57:57;25.60;51.40
53978;DHT22;39886;47.984;-1.586;2022-07-26T05:00:23;25.60;51.40
53978;DHT22;39886;47.984;-1.586;2022-07-26T05:02:52;25.60;51.50
53978;DHT22;39886;47.984;-1.586;2022-07-26T05:05:18;25.60;51.50
53978;DHT22;39886;47.984;-1.586;2022-07-26T05:07:48;25.60;51.50
53978;DHT22;39886;47.984;-1.586;2022-07-26T05:10:15;25.60;51.50
53978;DHT22;39886;47.984;-1.586;2022-07-26T05:12:41;25.60;51.50
53978;DHT22;39886;47.984;-1.586;2022-07-26T05:15:07;25.50;51.40
53978;DHT22;39886;47.984;-1.586;2022-07-26T05:17:36;25.60;51.50
53978;DHT22;39886;47.984;-1.586;2022-07-26T05:20:01;25.60;51.50
53978;DHT22;39886;47.984;-1.586;2022-07-26T05:22:28;25.60;51.50
53978;DHT22;39886;47.984;-1.586;2022-07-26T05:24:54;25.60;51.50
53978;DHT22;39886;47.984;-1.586;2022-07-26T05:27:20;25.60;51.50
53978;DHT22;39886;47.984;-1.586;2022-07-26T05:29:46;25.60;51.50
53978;DHT22;39886;47.984;-1.586;2022-07-26T05:32:12;25.60;51.50
53978;DHT22;39886;47.984;-1.586;2022-07-26T05:34:38;25.60;51.50
53978;DHT22;39886;47.984;-1.586;2022-07-26T05:37:04;25.60;51.60
53978;DHT22;39886;47.984;-1.586;2022-07-26T05:39:29;25.60;51.60
53978;DHT22;39886;47.984;-1.586;2022-07-26T05:41:55;25.60;51.50
53978;DHT22;39886;47.984;-1.586;2022-07-26T05:44:21;25.60;51.60
53978;DHT22;39886;47.984;-1.586;2022-07-26T05:46:49;25.60;51.50
53978;DHT22;39886;47.984;-1.586;2022-07-26T05:49:15;25.60;51.50
53978;DHT22;39886;47.984;-1.586;2022-07-26T05:51:41;25.60;51.60
53978;DHT22;39886;47.984;-1.586;2022-07-26T05:54:06;25.60;51.50
53978;DHT22;39886;47.984;-1.586;2022-07-26T05:56:32;25.60;51.60
53978;DHT22;39886;47.984;-1.586;2022-07-26T05:58:58;25.50;51.50
53978;DHT22;39886;47.984;-1.586;2022-07-26T06:01:24;25.50;51.50
53978;DHT22;39886;47.984;-1.586;2022-07-26T06:03:49;25.60;51.60
53978;DHT22;39886;47.984;-1.586;2022-07-26T06:06:15;25.50;51.50
53978;DHT22;39886;47.984;-1.586;2022-07-26T06:08:41;25.60;51.50
53978;DHT22;39886;47.984;-1.586;2022-07-26T06:11:07;25.60;51.60
53978;DHT22;39886;47.984;-1.586;2022-07-26T06:13:33;25.50;51.50
53978;DHT22;39886;47.984;-1.586;2022-07-26T06:15:59;25.50;51.50
53978;DHT22;39886;47.984;-1.586;2022-07-26T06:18:25;25.60;51.60
53978;DHT22;39886;47.984;-1.586;2022-07-26T06:20:51;25.30;52.40
53978;DHT22;39886;47.984;-1.586;2022-07-26T06:23:16;24.60;54.80
53978;DHT22;39886;47.984;-1.586;2022-07-26T06:25:42;24.00;56.50
53978;DHT22;39886;47.984;-1.586;2022-07-26T06:28:09;24.00;56.50
53978;DHT22;39886;47.984;-1.586;2022-07-26T06:30:36;23.90;57.00
53978;DHT22;39886;47.984;-1.586;2022-07-26T06:33:02;23.70;57.90
53978;DHT22;39886;47.984;-1.586;2022-07-26T06:35:28;23.60;57.70
53978;DHT22;39886;47.984;-1.586;2022-07-26T06:37:57;23.50;58.10
53978;DHT22;39886;47.984;-1.586;2022-07-26T06:40:24;23.50;58.40
53978;DHT22;39886;47.984;-1.586;2022-07-26T06:42:50;23.10;58.90
53978;DHT22;39886;47.984;-1.586;2022-07-26T06:45:16;23.10;59.20
53978;DHT22;39886;47.984;-1.586;2022-07-26T06:47:42;23.00;59.40
53978;DHT22;39886;47.984;-1.586;2022-07-26T06:50:08;23.00;59.20
53978;DHT22;39886;47.984;-1.586;2022-07-26T06:52:34;22.80;59.70
53978;DHT22;39886;47.984;-1.586;2022-07-26T06:55:00;22.70;59.70
53978;DHT22;39886;47.984;-1.586;2022-07-26T06:57:26;22.90;59.40
53978;DHT22;39886;47.984;-1.586;2022-07-26T06:59:52;22.80;59.20
53978;DHT22;39886;47.984;-1.586;2022-07-26T07:02:18;22.80;59.70
53978;DHT22;39886;47.984;-1.586;2022-07-26T07:04:44;22.80;59.70
53978;DHT22;39886;47.984;-1.586;2022-07-26T07:07:10;22.80;59.50
53978;DHT22;39886;47.984;-1.586;2022-07-26T07:09:36;22.70;59.60
53978;DHT22;39886;47.984;-1.586;2022-07-26T07:12:03;22.70;59.80
53978;DHT22;39886;47.984;-1.586;2022-07-26T07:14:29;22.90;59.70
53978;DHT22;39886;47.984;-1.586;2022-07-26T07:16:56;22.80;59.80
53978;DHT22;39886;47.984;-1.586;2022-07-26T07:19:22;22.90;59.60
53978;DHT22;39886;47.984;-1.586;2022-07-26T07:21:48;22.80;60.10
53978;DHT22;39886;47.984;-1.586;2022-07-26T07:24:14;22.80;60.00
53978;DHT22;39886;47.984;-1.586;2022-07-26T07:26:40;22.80;60.10
53978;DHT22;39886;47.984;-1.586;2022-07-26T07:29:06;22.90;60.00
53978;DHT22;39886;47.984;-1.586;2022-07-26T07:31:34;22.80;60.20
53978;DHT22;39886;47.984;-1.586;2022-07-26T07:34:00;22.70;60.80
53978;DHT22;39886;47.984;-1.586;2022-07-26T07:36:26;22.70;60.50
53978;DHT22;39886;47.984;-1.586;2022-07-26T07:38:51;22.60;60.70
53978;DHT22;39886;47.984;-1.586;2022-07-26T07:41:17;22.60;60.80
53978;DHT22;39886;47.984;-1.586;2022-07-26T07:43:43;22.50;61.00
53978;DHT22;39886;47.984;-1.586;2022-07-26T07:46:09;22.60;61.70
53978;DHT22;39886;47.984;-1.586;2022-07-26T07:48:36;22.80;60.50
53978;DHT22;39886;47.984;-1.586;2022-07-26T07:51:02;22.90;60.20
53978;DHT22;39886;47.984;-1.586;2022-07-26T07:53:28;22.80;60.40
53978;DHT22;39886;47.984;-1.586;2022-07-26T07:55:53;22.90;60.00
53978;DHT22;39886;47.984;-1.586;2022-07-26T07:58:19;22.70;59.70
53978;DHT22;39886;47.984;-1.586;2022-07-26T08:00:45;22.80;59.60
53978;DHT22;39886;47.984;-1.586;2022-07-26T08:03:11;23.00;58.80
53978;DHT22;39886;47.984;-1.586;2022-07-26T08:05:37;23.00;58.50
53978;DHT22;39886;47.984;-1.586;2022-07-26T08:08:03;22.90;59.00
53978;DHT22;39886;47.984;-1.586;2022-07-26T08:10:29;22.90;58.40
53978;DHT22;39886;47.984;-1.586;2022-07-26T08:12:55;22.80;58.50
53978;DHT22;39886;47.984;-1.586;2022-07-26T08:15:21;22.80;58.50
53978;DHT22;39886;47.984;-1.586;2022-07-26T08:17:48;23.00;57.70
53978;DHT22;39886;47.984;-1.586;2022-07-26T08:20:14;23.10;57.30
53978;DHT22;39886;47.984;-1.586;2022-07-26T08:22:40;23.30;56.80
53978;DHT22;39886;47.984;-1.586;2022-07-26T08:25:07;23.30;57.20
53978;DHT22;39886;47.984;-1.586;2022-07-26T08:27:33;23.20;57.50
53978;DHT22;39886;47.984;-1.586;2022-07-26T08:29:58;23.20;57.40
53978;DHT22;39886;47.984;-1.586;2022-07-26T08:32:24;23.20;57.40
53978;DHT22;39886;47.984;-1.586;2022-07-26T08:34:50;23.10;57.50
53978;DHT22;39886;47.984;-1.586;2022-07-26T08:37:16;23.00;57.30
53978;DHT22;39886;47.984;-1.586;2022-07-26T08:39:41;23.00;57.30
53978;DHT22;39886;47.984;-1.586;2022-07-26T08:42:18;23.10;57.10
53978;DHT22;39886;47.984;-1.586;2022-07-26T08:44:46;23.10;57.30
53978;DHT22;39886;47.984;-1.586;2022-07-26T08:47:17;23.10;57.30
53978;DHT22;39886;47.984;-1.586;2022-07-26T08:49:44;23.10;56.40
53978;DHT22;39886;47.984;-1.586;2022-07-26T08:52:11;23.00;55.90
53978;DHT22;39886;47.984;-1.586;2022-07-26T08:54:42;23.00;56.10
53978;DHT22;39886;47.984;-1.586;2022-07-26T08:57:08;23.10;56.30
53978;DHT22;39886;47.984;-1.586;2022-07-26T08:59:34;23.10;55.70
53978;DHT22;39886;47.984;-1.586;2022-07-26T09:02:02;23.20;54.80
53978;DHT22;39886;47.984;-1.586;2022-07-26T09:09:27;23.10;54.80
53978;DHT22;39886;47.984;-1.586;2022-07-26T09:11:54;23.10;55.00
53978;DHT22;39886;47.984;-1.586;2022-07-26T09:14:20;23.30;54.20
53978;DHT22;39886;47.984;-1.586;2022-07-26T09:16:59;23.40;54.00
53978;DHT22;39886;47.984;-1.586;2022-07-26T09:19:25;23.50;53.70
53978;DHT22;39886;47.984;-1.586;2022-07-26T09:21:51;23.60;53.60
53978;DHT22;39886;47.984;-1.586;2022-07-26T09:24:41;23.70;53.50
53978;DHT22;39886;47.984;-1.586;2022-07-26T09:27:10;23.80;53.40
53978;DHT22;39886;47.984;-1.586;2022-07-26T09:29:50;23.80;53.30
53978;DHT22;39886;47.984;-1.586;2022-07-26T09:32:19;23.50;53.70
53978;DHT22;39886;47.984;-1.586;2022-07-26T09:34:51;23.40;53.90
53978;DHT22;39886;47.984;-1.586;2022-07-26T09:37:17;23.40;53.30
53978;DHT22;39886;47.984;-1.586;2022-07-26T09:39:58;23.50;53.30
53978;DHT22;39886;47.984;-1.586;2022-07-26T09:42:25;23.70;52.70
53978;DHT22;39886;47.984;-1.586;2022-07-26T09:44:51;23.80;52.30
53978;DHT22;39886;47.984;-1.586;2022-07-26T09:47:17;23.90;52.30
53978;DHT22;39886;47.984;-1.586;2022-07-26T09:49:43;23.90;52.00
53978;DHT22;39886;47.984;-1.586;2022-07-26T09:52:20;24.00;51.80
53978;DHT22;39886;47.984;-1.586;2022-07-26T09:54:49;24.00;51.80
53978;DHT22;39886;47.984;-1.586;2022-07-26T09:57:19;24.10;51.70
53978;DHT22;39886;47.984;-1.586;2022-07-26T09:59:46;24.10;51.80
53978;DHT22;39886;47.984;-1.586;2022-07-26T10:02:12;24.10;51.30
53978;DHT22;39886;47.984;-1.586;2022-07-26T10:04:41;24.20;51.50
53978;DHT22;39886;47.984;-1.586;2022-07-26T10:07:08;24.20;51.40
53978;DHT22;39886;47.984;-1.586;2022-07-26T10:10:02;24.30;50.70
53978;DHT22;39886;47.984;-1.586;2022-07-26T10:12:31;24.30;50.30
53978;DHT22;39886;47.984;-1.586;2022-07-26T10:14:57;24.30;50.30
53978;DHT22;39886;47.984;-1.586;2022-07-26T10:19:59;24.00;50.10
53978;DHT22;39886;47.984;-1.586;2022-07-26T10:22:30;24.10;50.40
53978;DHT22;39886;47.984;-1.586;2022-07-26T10:27:44;24.30;50.30
53978;DHT22;39886;47.984;-1.586;2022-07-26T10:33:00;24.50;49.90
53978;DHT22;39886;47.984;-1.586;2022-07-26T10:35:36;24.40;49.50
53978;DHT22;39886;47.984;-1.586;2022-07-26T10:40:33;24.00;50.50
53978;DHT22;39886;47.984;-1.586;2022-07-26T10:45:33;24.30;49.70
53978;DHT22;39886;47.984;-1.586;2022-07-26T10:50:40;24.20;49.30
53978;DHT22;39886;47.984;-1.586;2022-07-26T10:53:08;24.00;49.70
53978;DHT22;39886;47.984;-1.586;2022-07-26T10:55:54;23.90;50.00
53978;DHT22;39886;47.984;-1.586;2022-07-26T10:58:22;24.00;49.80
53978;DHT22;39886;47.984;-1.586;2022-07-26T11:00:56;24.10;49.90
53978;DHT22;39886;47.984;-1.586;2022-07-26T11:03:23;24.30;50.10
53978;DHT22;39886;47.984;-1.586;2022-07-26T11:05:49;24.20;50.40
53978;DHT22;39886;47.984;-1.586;2022-07-26T11:08:16;24.30;50.10
53978;DHT22;39886;47.984;-1.586;2022-07-26T11:10:46;24.40;50.00
53978;DHT22;39886;47.984;-1.586;2022-07-26T11:15:41;24.60;49.70
53978;DHT22;39886;47.984;-1.586;2022-07-26T11:18:25;24.70;49.60
53978;DHT22;39886;47.984;-1.586;2022-07-26T11:21:06;24.70;49.20
53978;DHT22;39886;47.984;-1.586;2022-07-26T11:23:34;24.70;49.40
53978;DHT22;39886;47.984;-1.586;2022-07-26T11:29:02;24.60;49.70
53978;DHT22;39886;47.984;-1.586;2022-07-26T11:31:40;24.70;49.60
53978;DHT22;39886;47.984;-1.586;2022-07-26T11:34:14;24.80;49.30
53978;DHT22;39886;47.984;-1.586;2022-07-26T11:36:43;24.70;49.10
53978;DHT22;39886;47.984;-1.586;2022-07-26T11:39:30;24.50;49.70
53978;DHT22;39886;47.984;-1.586;2022-07-26T11:42:04;24.40;50.00
53978;DHT22;39886;47.984;-1.586;2022-07-26T11:44:30;24.60;49.90
53978;DHT22;39886;47.984;-1.586;2022-07-26T11:46:56;24.60;49.60
53978;DHT22;39886;47.984;-1.586;2022-07-26T11:49:24;24.70;49.30
53978;DHT22;39886;47.984;-1.586;2022-07-26T11:51:58;24.70;49.30
53978;DHT22;39886;47.984;-1.586;2022-07-26T11:54:27;24.70;49.30
53978;DHT22;39886;47.984;-1.586;2022-07-26T11:56:58;24.80;48.90
53978;DHT22;39886;47.984;-1.586;2022-07-26T11:59:28;24.80;48.80
53978;DHT22;39886;47.984;-1.586;2022-07-26T12:01:55;24.90;48.70
53978;DHT22;39886;47.984;-1.586;2022-07-26T12:04:31;25.00;48.20
53978;DHT22;39886;47.984;-1.586;2022-07-26T12:06:58;25.00;48.30
53978;DHT22;39886;47.984;-1.586;2022-07-26T12:09:32;25.00;47.70
53978;DHT22;39886;47.984;-1.586;2022-07-26T12:11:58;24.80;47.90
53978;DHT22;39886;47.984;-1.586;2022-07-26T12:14:26;24.80;48.40
53978;DHT22;39886;47.984;-1.586;2022-07-26T12:16:52;25.00;47.90
53978;DHT22;39886;47.984;-1.586;2022-07-26T12:21:45;25.10;47.50
53978;DHT22;39886;47.984;-1.586;2022-07-26T12:24:32;25.10;47.20
53978;DHT22;39886;47.984;-1.586;2022-07-26T12:27:12;25.00;46.80
53978;DHT22;39886;47.984;-1.586;2022-07-26T12:29:40;24.90;47.30
53978;DHT22;39886;47.984;-1.586;2022-07-26T12:32:17;25.00;47.30
53978;DHT22;39886;47.984;-1.586;2022-07-26T12:34:59;25.10;47.00
53978;DHT22;39886;47.984;-1.586;2022-07-26T12:37:26;25.00;46.40
53978;DHT22;39886;47.984;-1.586;2022-07-26T12:40:22;25.10;46.90
53978;DHT22;39886;47.984;-1.586;2022-07-26T12:42:57;25.10;46.70
53978;DHT22;39886;47.984;-1.586;2022-07-26T12:45:29;25.00;46.30
53978;DHT22;39886;47.984;-1.586;2022-07-26T12:47:56;25.00;46.60
53978;DHT22;39886;47.984;-1.586;2022-07-26T12:50:25;25.00;46.70
53978;DHT22;39886;47.984;-1.586;2022-07-26T12:52:52;25.00;46.30
53978;DHT22;39886;47.984;-1.586;2022-07-26T12:55:23;25.20;46.50
53978;DHT22;39886;47.984;-1.586;2022-07-26T12:57:49;25.00;46.00
53978;DHT22;39886;47.984;-1.586;2022-07-26T13:00:16;24.90;46.40
53978;DHT22;39886;47.984;-1.586;2022-07-26T13:02:46;25.00;45.90
53978;DHT22;39886;47.984;-1.586;2022-07-26T13:05:12;25.00;46.20
53978;DHT22;39886;47.984;-1.586;2022-07-26T13:07:39;25.10;46.20
53978;DHT22;39886;47.984;-1.586;2022-07-26T13:10:07;25.20;45.90
53978;DHT22;39886;47.984;-1.586;2022-07-26T13:12:33;25.00;46.00
53978;DHT22;39886;47.984;-1.586;2022-07-26T13:14:59;25.00;46.20
53978;DHT22;39886;47.984;-1.586;2022-07-26T13:17:25;24.90;46.40
53978;DHT22;39886;47.984;-1.586;2022-07-26T13:19:51;24.90;46.20
53978;DHT22;39886;47.984;-1.586;2022-07-26T13:22:17;24.80;46.00
53978;DHT22;39886;47.984;-1.586;2022-07-26T13:24:42;24.90;46.10
53978;DHT22;39886;47.984;-1.586;2022-07-26T13:27:08;25.00;45.80
53978;DHT22;39886;47.984;-1.586;2022-07-26T13:29:34;24.90;45.80
53978;DHT22;39886;47.984;-1.586;2022-07-26T13:32:01;25.00;45.90
53978;DHT22;39886;47.984;-1.586;2022-07-26T13:34:28;25.10;46.00
53978;DHT22;39886;47.984;-1.586;2022-07-26T13:36:55;25.20;45.80
53978;DHT22;39886;47.984;-1.586;2022-07-26T13:39:21;25.10;45.40
53978;DHT22;39886;47.984;-1.586;2022-07-26T13:41:47;24.90;45.30
53978;DHT22;39886;47.984;-1.586;2022-07-26T13:44:13;24.80;45.90
53978;DHT22;39886;47.984;-1.586;2022-07-26T13:46:39;25.00;45.70
53978;DHT22;39886;47.984;-1.586;2022-07-26T13:49:05;25.10;45.50
53978;DHT22;39886;47.984;-1.586;2022-07-26T13:51:32;25.10;45.60
53978;DHT22;39886;47.984;-1.586;2022-07-26T13:54:19;25.10;45.50
53978;DHT22;39886;47.984;-1.586;2022-07-26T13:56:45;25.00;45.40
53978;DHT22;39886;47.984;-1.586;2022-07-26T13:59:12;25.10;45.50
53978;DHT22;39886;47.984;-1.586;2022-07-26T14:01:39;25.10;45.50
53978;DHT22;39886;47.984;-1.586;2022-07-26T14:04:06;25.20;45.40
53978;DHT22;39886;47.984;-1.586;2022-07-26T14:06:33;25.40;45.40
53978;DHT22;39886;47.984;-1.586;2022-07-26T14:08:59;25.40;45.10
53978;DHT22;39886;47.984;-1.586;2022-07-26T14:11:26;25.40;44.80
53978;DHT22;39886;47.984;-1.586;2022-07-26T14:13:52;25.40;45.00
53978;DHT22;39886;47.984;-1.586;2022-07-26T14:16:18;25.30;45.00
53978;DHT22;39886;47.984;-1.586;2022-07-26T14:18:44;25.30;44.80
53978;DHT22;39886;47.984;-1.586;2022-07-26T14:21:10;25.40;44.90
53978;DHT22;39886;47.984;-1.586;2022-07-26T14:23:36;25.40;44.70
53978;DHT22;39886;47.984;-1.586;2022-07-26T14:26:02;25.50;44.70
53978;DHT22;39886;47.984;-1.586;2022-07-26T14:28:28;25.60;44.70
53978;DHT22;39886;47.984;-1.586;2022-07-26T14:30:54;25.60;44.80
53978;DHT22;39886;47.984;-1.586;2022-07-26T14:33:19;25.60;44.80
53978;DHT22;39886;47.984;-1.586;2022-07-26T14:35:45;25.70;44.90
53978;DHT22;39886;47.984;-1.586;2022-07-26T14:38:11;25.70;45.00
53978;DHT22;39886;47.984;-1.586;2022-07-26T14:40:38;25.80;45.10
53978;DHT22;39886;47.984;-1.586;2022-07-26T14:43:04;25.80;45.00
53978;DHT22;39886;47.984;-1.586;2022-07-26T14:45:30;25.80;45.00
53978;DHT22;39886;47.984;-1.586;2022-07-26T14:47:56;25.80;44.80
53978;DHT22;39886;47.984;-1.586;2022-07-26T14:50:22;25.80;44.80
53978;DHT22;39886;47.984;-1.586;2022-07-26T14:52:50;25.80;44.90
53978;DHT22;39886;47.984;-1.586;2022-07-26T14:55:16;25.90;44.80
53978;DHT22;39886;47.984;-1.586;2022-07-26T14:57:42;25.90;45.50
53978;DHT22;39886;47.984;-1.586;2022-07-26T15:00:15;25.90;44.70
53978;DHT22;39886;47.984;-1.586;2022-07-26T15:02:44;26.00;44.70
53978;DHT22;39886;47.984;-1.586;2022-07-26T15:05:11;26.00;44.70
53978;DHT22;39886;47.984;-1.586;2022-07-26T15:07:38;26.00;44.50
53978;DHT22;39886;47.984;-1.586;2022-07-26T15:10:04;26.00;44.40
53978;DHT22;39886;47.984;-1.586;2022-07-26T15:12:30;26.10;44.60
53978;DHT22;39886;47.984;-1.586;2022-07-26T15:14:56;26.10;44.50
53978;DHT22;39886;47.984;-1.586;2022-07-26T15:17:22;26.10;44.50
53978;DHT22;39886;47.984;-1.586;2022-07-26T15:19:47;26.10;44.40
53978;DHT22;39886;47.984;-1.586;2022-07-26T15:22:13;26.10;44.40
53978;DHT22;39886;47.984;-1.586;2022-07-26T15:24:39;26.10;44.40
53978;DHT22;39886;47.984;-1.586;2022-07-26T15:27:05;26.10;44.40
53978;DHT22;39886;47.984;-1.586;2022-07-26T15:29:31;26.20;44.20
53978;DHT22;39886;47.984;-1.586;2022-07-26T15:31:57;26.20;44.00
53978;DHT22;39886;47.984;-1.586;2022-07-26T15:34:23;26.20;44.10
53978;DHT22;39886;47.984;-1.586;2022-07-26T15:36:48;26.20;44.10
53978;DHT22;39886;47.984;-1.586;2022-07-26T15:39:14;26.20;44.10
53978;DHT22;39886;47.984;-1.586;2022-07-26T15:41:40;26.20;44.00
53978;DHT22;39886;47.984;-1.586;2022-07-26T15:44:08;26.20;44.10